Terminal Aerodrome Forecast
Issued by NWS

Home | Current Version | Previous Version | Text Only | Print | Product List | Glossary On
Versions: 1 2 3 4 5 6 7 8 9 10 11 12 13 14 15 16 17 18 19
000
FTUS46 KPQR 180520
TAFONP
TAF
KONP 180520Z 1806/1906 31004KT P6SM VCSH SCT025 BKN050
      TEMPO 1806/1809 BKN025
     FM181200 06003KT 5SM BR SCT050
     FM181600 35005KT P6SM SCT200
     FM182300 35009KT P6SM BKN120=

USA.gov is the U.S. government's official web portal to all federal, state and local government web resources and services.